createdAt,value
2019-05-10T00:00:36.803Z,1.67
2019-05-10T00:03:23.210Z,1.90
2019-05-10T00:06:09.583Z,1.60
2019-05-10T00:08:46.778Z,1.77
2019-05-10T00:11:39.147Z,1.37
2019-05-10T00:14:27.396Z,1.50
2019-05-10T00:16:57.619Z,1.80
2019-05-10T00:19:26.038Z,1.83
2019-05-10T00:24:30.086Z,1.70
2019-05-10T00:26:58.679Z,1.70
2019-05-10T00:29:29.061Z,1.90
2019-05-10T00:31:57.582Z,1.80
2019-05-10T00:34:25.980Z,2.00
2019-05-10T00:36:55.073Z,2.00
2019-05-10T00:39:23.490Z,2.00
2019-05-10T00:41:51.902Z,1.70
2019-05-10T00:44:20.326Z,1.87
2019-05-10T00:46:48.763Z,1.83
2019-05-10T00:49:17.181Z,1.90
2019-05-10T00:51:45.618Z,1.80
2019-05-10T00:54:14.042Z,1.50
2019-05-10T00:56:42.460Z,1.83
2019-05-10T00:59:10.907Z,1.60
2019-05-10T01:01:39.314Z,1.60
2019-05-10T01:04:07.755Z,1.70
2019-05-10T01:06:36.171Z,2.03
2019-05-10T01:09:25.459Z,1.80
2019-05-10T01:11:53.869Z,1.80
2019-05-10T01:14:22.353Z,1.90
2019-05-10T01:16:50.776Z,2.10
2019-05-10T01:19:19.203Z,2.10
2019-05-10T01:21:47.723Z,1.77
2019-05-10T01:24:30.407Z,2.00
2019-05-10T01:27:07.057Z,1.50
2019-05-10T01:29:40.571Z,1.67
2019-05-10T01:32:12.762Z,1.87
2019-05-10T01:34:44.121Z,1.90
2019-05-10T01:37:18.490Z,1.93
2019-05-10T01:40:05.887Z,2.00
2019-05-10T01:42:37.882Z,1.93
2019-05-10T01:45:16.300Z,1.97
2019-05-10T01:47:50.768Z,1.90
2019-05-10T01:50:23.512Z,2.10
2019-05-10T01:53:03.485Z,2.00
2019-05-10T01:58:38.272Z,2.00
2019-05-10T02:01:19.031Z,2.07
2019-05-10T02:04:01.051Z,2.00
2019-05-10T02:06:40.886Z,2.10
2019-05-10T02:09:23.025Z,1.87
2019-05-10T02:12:14.492Z,2.13
2019-05-10T02:14:51.171Z,2.00
2019-05-10T02:17:31.292Z,1.97
2019-05-10T02:20:07.349Z,2.20
2019-05-10T02:22:38.207Z,2.00
2019-05-10T02:25:11.870Z,1.77
2019-05-10T02:27:45.804Z,2.17
2019-05-10T02:30:34.765Z,2.10
2019-05-10T02:33:10.557Z,1.83
2019-05-10T02:35:48.699Z,1.93
2019-05-10T02:38:23.600Z,1.57
2019-05-10T02:41:00.325Z,2.00
2019-05-10T02:43:33.693Z,2.07
2019-05-10T02:46:07.121Z,2.40
2019-05-10T02:48:58.666Z,2.20
2019-05-10T02:51:50.538Z,1.90
2019-05-10T02:54:25.726Z,1.97
2019-05-10T03:02:58.975Z,2.00
2019-05-10T03:05:51.915Z,2.00
2019-05-10T03:14:28.670Z,2.17
2019-05-10T03:17:12.065Z,1.90
2019-05-10T03:22:40.255Z,2.10
2019-05-10T03:25:29.609Z,1.97
2019-05-10T03:31:15.733Z,2.10
2019-05-10T03:33:59.453Z,1.90
2019-05-10T03:36:31.629Z,2.17
2019-05-10T03:42:00.740Z,2.17
2019-05-10T03:44:29.155Z,1.90
2019-05-10T03:46:57.604Z,2.13
2019-05-10T03:49:26.014Z,2.03
2019-05-10T03:51:54.462Z,1.60
2019-05-10T03:54:22.944Z,1.80
2019-05-10T03:57:11.080Z,2.27
2019-05-10T03:59:21.511Z,2.23
2019-05-10T04:01:49.932Z,2.20
2019-05-10T04:04:18.356Z,2.20
2019-05-10T04:06:46.780Z,1.80
2019-05-10T04:09:15.211Z,2.60
2019-05-10T04:11:43.693Z,2.40
2019-05-10T04:14:12.137Z,2.10
2019-05-10T04:16:40.577Z,2.20
2019-05-10T04:19:09.007Z,2.23
2019-05-10T04:21:38.417Z,2.17
2019-05-10T04:24:06.820Z,2.40
2019-05-10T04:26:36.532Z,2.30
2019-05-10T04:29:05.040Z,1.97
2019-05-10T04:31:33.461Z,2.00
2019-05-10T04:34:01.868Z,2.07
2019-05-10T04:36:30.345Z,2.40
2019-05-10T04:38:58.772Z,1.90
2019-05-10T04:41:27.195Z,2.00
2019-05-10T04:43:55.617Z,1.80
2019-05-10T04:46:24.239Z,1.70
2019-05-10T04:48:52.654Z,1.60
2019-05-10T04:51:21.087Z,1.73
2019-05-10T04:53:49.502Z,1.87
2019-05-10T04:56:18.921Z,2.10
2019-05-10T04:58:47.316Z,2.13
2019-05-10T05:01:15.740Z,1.90
2019-05-10T05:03:44.178Z,1.80
2019-05-10T05:06:12.638Z,1.83
2019-05-10T05:08:41.066Z,1.70
2019-05-10T05:11:09.476Z,1.50
2019-05-10T05:13:38.012Z,1.60
2019-05-10T05:16:06.431Z,1.50
2019-05-10T05:18:34.841Z,2.10
2019-05-10T05:21:04.290Z,1.43
2019-05-10T05:23:32.707Z,2.00
2019-05-10T05:26:01.393Z,1.77
2019-05-10T05:28:29.807Z,1.73
2019-05-10T05:30:58.208Z,1.93
2019-05-10T05:33:26.702Z,2.07
2019-05-10T05:35:55.212Z,1.80
2019-05-10T05:38:23.655Z,1.80
2019-05-10T05:40:52.834Z,1.57
2019-05-10T05:43:21.340Z,1.80
2019-05-10T05:45:49.751Z,1.77
2019-05-10T05:48:21.320Z,2.17
2019-05-10T05:50:48.329Z,2.50
2019-05-10T05:53:16.766Z,1.60
2019-05-10T05:55:45.240Z,1.70
2019-05-10T05:58:25.713Z,1.73
2019-05-10T06:00:44.964Z,2.20
2019-05-10T06:03:19.447Z,1.60
2019-05-10T06:05:44.169Z,2.30
2019-05-10T06:08:30.049Z,1.70
2019-05-10T06:10:44.053Z,1.90
2019-05-10T06:13:12.655Z,1.93
2019-05-10T06:15:41.065Z,1.80
2019-05-10T06:18:11.962Z,2.13
2019-05-10T06:20:44.496Z,1.90
2019-05-10T06:23:09.860Z,1.90
2019-05-10T06:25:40.568Z,2.00
2019-05-10T06:28:24.995Z,1.80
2019-05-10T06:30:38.604Z,2.33
2019-05-10T06:33:12.596Z,2.50
2019-05-10T06:35:37.148Z,1.80
2019-05-10T06:38:05.586Z,1.77
2019-05-10T06:40:39.540Z,1.90
2019-05-10T06:43:07.019Z,2.17
2019-05-10T06:45:34.354Z,2.23
2019-05-10T06:48:02.800Z,2.57
2019-05-10T06:50:31.917Z,1.83
2019-05-10T06:53:07.948Z,2.40
2019-05-10T06:55:30.673Z,1.87
2019-05-10T06:58:00.856Z,2.67
2019-05-10T07:00:29.302Z,2.33
2019-05-10T07:02:57.751Z,2.53
2019-05-10T07:05:26.187Z,2.33
2019-05-10T07:08:00.598Z,2.03
2019-05-10T07:10:25.351Z,1.80
2019-05-10T07:12:57.334Z,2.30
2019-05-10T07:15:24.322Z,2.50
2019-05-10T07:17:52.733Z,2.30
2019-05-10T07:20:23.619Z,2.30
2019-05-10T07:22:51.370Z,2.07
2019-05-10T07:25:19.793Z,2.27
2019-05-10T07:27:50.294Z,2.30
2019-05-10T07:30:27.278Z,2.47
2019-05-10T07:32:59.775Z,2.20
2019-05-10T07:35:30.992Z,2.40
2019-05-10T07:37:56.025Z,2.13
2019-05-10T07:40:25.053Z,2.20
2019-05-10T07:42:53.470Z,2.10
2019-05-10T07:45:25.734Z,2.30
2019-05-10T07:47:52.091Z,2.30
2019-05-10T07:50:20.507Z,2.20
2019-05-10T07:52:48.947Z,2.30
2019-05-10T07:55:27.953Z,2.10
2019-05-10T07:57:47.835Z,2.30
2019-05-10T08:00:16.682Z,2.30
2019-05-10T08:02:54.998Z,1.93
2019-05-10T08:05:15.658Z,2.47
2019-05-10T08:07:44.099Z,2.30
2019-05-10T08:10:12.604Z,2.47
2019-05-10T08:12:45.477Z,2.30
2019-05-10T08:15:11.529Z,2.20
2019-05-10T08:17:45.218Z,2.60
2019-05-10T08:20:22.090Z,2.20
2019-05-10T08:22:44.472Z,2.60
2019-05-10T08:25:12.695Z,2.40
2019-05-10T08:27:44.107Z,2.37
2019-05-10T08:30:22.672Z,2.50
2019-05-10T08:32:42.467Z,2.80
2019-05-10T08:35:16.552Z,2.50
2019-05-10T08:37:43.313Z,2.33
2019-05-10T08:40:12.790Z,2.23
2019-05-10T08:42:48.270Z,2.80
2019-05-10T08:45:12.564Z,2.67
2019-05-10T08:47:42.632Z,2.67
2019-05-10T08:50:26.330Z,2.23
2019-05-10T08:52:42.359Z,2.67
2019-05-10T08:55:12.282Z,2.40
2019-05-10T08:57:47.343Z,2.30
2019-05-10T09:00:12.977Z,2.20
2019-05-10T09:02:42.746Z,2.00
2019-05-10T09:05:12.578Z,1.80
2019-05-10T09:07:43.065Z,2.10
2019-05-10T09:10:12.800Z,1.93
2019-05-10T09:12:50.519Z,1.70
2019-05-10T09:15:13.609Z,2.17
2019-05-10T09:17:42.829Z,2.10
2019-05-10T09:20:20.937Z,2.00
2019-05-10T09:22:42.546Z,2.27
2019-05-10T09:25:12.795Z,2.43
2019-05-10T09:27:43.130Z,2.20
2019-05-10T09:30:14.108Z,2.23
2019-05-10T09:32:43.503Z,2.40
2019-05-10T09:35:12.925Z,2.00
2019-05-10T09:37:42.163Z,2.20
2019-05-10T09:40:13.446Z,2.10
2019-05-10T09:42:43.611Z,2.10
2019-05-10T09:45:13.187Z,1.70
2019-05-10T09:47:43.427Z,1.80
2019-05-10T09:50:12.930Z,1.47
2019-05-10T09:52:41.462Z,1.97
2019-05-10T09:55:14.825Z,1.77
2019-05-10T09:57:41.737Z,2.00
2019-05-10T10:00:11.014Z,2.03
2019-05-10T10:02:40.496Z,2.07
2019-05-10T10:05:09.562Z,2.00
2019-05-10T10:07:37.993Z,2.20
2019-05-10T10:10:07.534Z,1.90
2019-05-10T10:12:37.310Z,2.03
2019-05-10T10:15:09.266Z,1.90
2019-05-10T10:17:41.944Z,2.33
2019-05-10T10:20:08.432Z,2.70
2019-05-10T10:22:38.074Z,2.30
2019-05-10T10:25:07.588Z,2.50
2019-05-10T10:27:39.140Z,2.43
2019-05-10T10:30:12.755Z,2.40
2019-05-10T10:32:37.699Z,2.33
2019-05-10T10:35:07.853Z,2.43
2019-05-10T10:37:37.886Z,2.40
2019-05-10T10:40:08.628Z,2.07
2019-05-10T10:42:38.185Z,2.10
2019-05-10T10:45:08.797Z,2.20
2019-05-10T10:47:38.096Z,2.43
2019-05-10T10:50:13.018Z,2.17
2019-05-10T10:52:38.242Z,2.20
2019-05-10T10:55:11.066Z,2.03
2019-05-10T10:57:38.015Z,1.73
2019-05-10T11:00:08.995Z,1.90
2019-05-10T11:02:41.076Z,2.07
2019-05-10T11:05:08.686Z,2.20
2019-05-10T11:07:41.078Z,2.70
2019-05-10T11:10:17.990Z,2.90
2019-05-10T11:12:38.244Z,2.60
2019-05-10T11:15:07.391Z,2.20
2019-05-10T11:17:35.822Z,2.33
2019-05-10T11:20:08.629Z,2.10
2019-05-10T11:22:41.830Z,2.57
2019-05-10T11:25:09.785Z,2.20
2019-05-10T11:27:36.480Z,2.40
2019-05-10T11:30:06.838Z,3.27
2019-05-10T11:32:35.247Z,3.27
2019-05-10T11:35:05.474Z,2.97
2019-05-10T11:37:36.336Z,3.00
2019-05-10T11:40:07.051Z,2.80
2019-05-10T11:42:37.553Z,2.90
2019-05-10T11:45:07.196Z,2.70
2019-05-10T11:47:35.602Z,2.13
2019-05-10T11:50:06.707Z,1.98
2019-05-10T11:52:36.488Z,1.97
2019-05-10T11:55:05.917Z,2.20
2019-05-10T11:57:34.357Z,2.07
2019-05-10T12:00:02.790Z,2.43
2019-05-10T12:02:38.765Z,2.23
2019-05-10T12:05:11.027Z,1.97
2019-05-10T12:07:42.690Z,1.90
2019-05-10T12:10:08.268Z,2.40
2019-05-10T12:12:50.536Z,2.50
2019-05-10T12:15:04.359Z,2.30
2019-05-10T12:17:32.103Z,1.90
2019-05-10T12:20:02.445Z,2.23
2019-05-10T12:22:38.176Z,2.13
2019-05-10T12:25:23.328Z,2.07
2019-05-10T12:27:44.099Z,1.80
2019-05-10T12:30:03.367Z,2.00
2019-05-10T12:32:33.441Z,2.37
2019-05-10T12:35:01.623Z,1.97
2019-05-10T12:37:30.819Z,2.10
2019-05-10T12:40:06.227Z,1.83
2019-05-10T12:42:31.706Z,1.93
2019-05-10T12:45:01.279Z,1.90
2019-05-10T12:47:30.562Z,1.93
2019-05-10T12:50:02.107Z,2.40
2019-05-10T12:52:32.066Z,2.10
2019-05-10T12:55:00.660Z,2.40
2019-05-10T12:57:29.090Z,1.93
2019-05-10T12:59:57.978Z,2.47
2019-05-10T13:02:26.405Z,2.00
2019-05-10T13:04:54.824Z,2.40
2019-05-10T13:07:23.230Z,2.33
2019-05-10T13:10:02.686Z,2.23
2019-05-10T13:12:21.854Z,2.40
2019-05-10T13:14:52.895Z,1.90
2019-05-10T13:17:20.388Z,2.40
2019-05-10T13:19:52.717Z,2.20
2019-05-10T13:22:18.971Z,1.90
2019-05-10T13:24:47.432Z,2.10
2019-05-10T13:27:15.862Z,2.00
2019-05-10T13:29:47.003Z,1.70
2019-05-10T13:32:14.761Z,1.90
2019-05-10T13:34:44.585Z,2.07
2019-05-10T13:37:22.750Z,2.07
2019-05-10T13:39:43.178Z,2.00
2019-05-10T13:42:11.677Z,1.87
2019-05-10T13:44:42.979Z,2.00
2019-05-10T13:47:10.379Z,2.03
2019-05-10T13:49:38.832Z,1.70
2019-05-10T13:52:07.316Z,1.67
2019-05-10T13:54:36.390Z,1.90
2019-05-10T13:57:05.981Z,1.70
2019-05-10T13:59:34.866Z,1.60
2019-05-10T14:02:03.309Z,1.70
2019-05-10T14:04:34.043Z,1.50
2019-05-10T14:07:01.908Z,1.70
2019-05-10T14:09:30.338Z,1.90
2019-05-10T14:11:58.769Z,2.00
2019-05-10T14:14:27.173Z,2.10
2019-05-10T14:16:55.607Z,2.53
2019-05-10T14:19:25.468Z,1.67
2019-05-10T14:21:54.179Z,1.87
2019-05-10T14:24:22.586Z,1.93
2019-05-10T14:26:51.476Z,2.10
2019-05-10T14:29:33.327Z,1.50
2019-05-10T14:31:51.312Z,1.83
2019-05-10T14:34:19.797Z,1.97
2019-05-10T14:36:49.170Z,1.90
2019-05-10T14:39:17.627Z,1.80
2019-05-10T14:41:50.849Z,2.17
2019-05-10T14:44:16.553Z,1.70
2019-05-10T14:46:44.965Z,2.27
2019-05-10T14:49:13.381Z,1.87
2019-05-10T14:51:57.779Z,1.93
2019-05-10T14:54:11.946Z,1.80
2019-05-10T14:56:40.451Z,1.90
2019-05-10T14:59:08.972Z,1.97
2019-05-10T15:01:42.954Z,1.70
2019-05-10T15:04:07.698Z,1.77
2019-05-10T15:06:36.848Z,1.90
2019-05-10T15:09:07.748Z,1.80
2019-05-10T15:11:37.890Z,1.70
2019-05-10T15:14:06.447Z,1.80
2019-05-10T15:16:34.956Z,1.40
2019-05-10T15:19:03.402Z,1.53
2019-05-10T15:21:34.544Z,1.63
2019-05-10T15:24:03.102Z,1.53
2019-05-10T15:26:31.581Z,1.37
2019-05-10T15:29:00.008Z,1.30
2019-05-10T15:31:29.143Z,1.60
2019-05-10T15:33:58.592Z,1.70
2019-05-10T15:36:29.843Z,1.80
2019-05-10T15:38:57.252Z,1.60
2019-05-10T15:41:25.688Z,1.33
2019-05-10T15:43:54.984Z,1.50
2019-05-10T15:46:36.095Z,1.50
2019-05-10T15:48:53.749Z,1.63
2019-05-10T15:51:35.240Z,1.70
2019-05-10T15:53:52.363Z,1.50
2019-05-10T15:56:20.756Z,1.73
2019-05-10T15:58:49.222Z,1.43
2019-05-10T16:01:26.119Z,2.00
2019-05-10T16:03:47.756Z,1.67
2019-05-10T16:06:16.178Z,1.73
2019-05-10T16:08:44.842Z,1.50
2019-05-10T16:11:18.727Z,1.67
2019-05-10T16:13:43.445Z,1.80
2019-05-10T16:16:12.887Z,1.90
2019-05-10T16:18:41.749Z,1.80
2019-05-10T16:21:15.272Z,1.57
2019-05-10T16:23:41.528Z,1.77
2019-05-10T16:26:10.866Z,2.20
2019-05-10T16:28:39.294Z,2.03
2019-05-10T16:31:07.714Z,1.60
2019-05-10T16:33:36.148Z,1.93
2019-05-10T16:36:04.650Z,2.10
2019-05-10T16:38:33.069Z,1.60
2019-05-10T16:41:01.496Z,1.63
2019-05-10T16:43:29.905Z,1.97
2019-05-10T16:45:58.391Z,1.80
2019-05-10T16:48:28.351Z,1.80
2019-05-10T16:50:57.152Z,1.60
2019-05-10T16:53:25.576Z,1.63
2019-05-10T16:55:54.021Z,1.40
2019-05-10T16:58:22.537Z,2.10
2019-05-10T17:00:50.922Z,1.87
2019-05-10T17:03:20.641Z,1.70
2019-05-10T17:05:53.496Z,2.00
2019-05-10T17:08:19.502Z,1.60
2019-05-10T17:10:47.924Z,1.93
2019-05-10T17:13:16.360Z,1.63
2019-05-10T17:15:44.771Z,1.70
2019-05-10T17:18:17.602Z,1.70
2019-05-10T17:20:45.373Z,1.73
2019-05-10T17:23:13.501Z,1.60
2019-05-10T17:25:42.371Z,1.40
2019-05-10T17:28:10.915Z,1.70
2019-05-10T17:30:39.344Z,1.77
2019-05-10T17:33:10.797Z,1.70
2019-05-10T17:35:42.123Z,1.83
2019-05-10T17:38:13.921Z,1.63
2019-05-10T17:40:42.291Z,1.50
2019-05-10T17:43:08.517Z,1.60
2019-05-10T17:45:40.426Z,1.50
2019-05-10T17:48:08.725Z,1.50
2019-05-10T17:50:37.396Z,1.80
2019-05-10T17:53:05.878Z,1.80
2019-05-10T17:55:34.308Z,1.43
2019-05-10T17:58:02.736Z,1.53
2019-05-10T18:00:31.235Z,2.20
2019-05-10T18:02:59.668Z,2.10
2019-05-10T18:05:28.238Z,2.00
2019-05-10T18:07:56.893Z,1.80
2019-05-10T18:10:25.400Z,1.60
2019-05-10T18:12:57.323Z,1.63
2019-05-10T18:15:27.846Z,1.60
2019-05-10T18:17:57.577Z,1.30
2019-05-10T18:20:24.390Z,1.60
2019-05-10T18:22:52.820Z,1.33
2019-05-10T18:25:22.370Z,2.00
2019-05-10T18:27:50.906Z,1.80
2019-05-10T18:30:20.182Z,1.93
2019-05-10T18:32:48.634Z,1.60
2019-05-10T18:35:17.211Z,1.23
2019-05-10T18:37:45.712Z,1.30
2019-05-10T18:40:14.402Z,1.80
2019-05-10T18:42:42.846Z,1.80
2019-05-10T18:45:11.395Z,1.73
2019-05-10T18:47:39.828Z,2.10
2019-05-10T18:50:08.898Z,1.80
2019-05-10T18:52:37.309Z,1.50
2019-05-10T18:55:06.089Z,1.50
2019-05-10T18:57:34.512Z,1.50
2019-05-10T19:00:03.272Z,1.50
2019-05-10T19:02:31.864Z,1.30
2019-05-10T19:05:00.308Z,1.70
2019-05-10T19:07:28.751Z,1.40
2019-05-10T19:09:57.173Z,1.57
2019-05-10T19:12:25.909Z,1.97
2019-05-10T19:14:54.602Z,1.70
2019-05-10T19:17:23.031Z,1.63
2019-05-10T19:19:51.459Z,1.80
2019-05-10T19:22:19.892Z,1.97
2019-05-10T19:24:48.293Z,1.93
2019-05-10T19:27:16.707Z,1.80
2019-05-10T19:29:47.581Z,1.50
2019-05-10T19:32:18.013Z,1.70
2019-05-10T19:34:48.398Z,1.27
2019-05-10T19:37:28.370Z,1.83
2019-05-10T19:39:45.809Z,1.43
2019-05-10T19:42:14.320Z,1.60
2019-05-10T19:44:42.781Z,1.80
2019-05-10T19:47:17.389Z,1.60
2019-05-10T19:49:45.885Z,1.90
2019-05-10T19:52:11.787Z,2.10
2019-05-10T19:54:40.281Z,1.90
2019-05-10T19:57:15.083Z,1.93
2019-05-10T19:59:44.145Z,1.70
2019-05-10T20:02:09.048Z,1.73
2019-05-10T20:04:37.524Z,1.53
2019-05-10T20:07:06.012Z,1.70
2019-05-10T20:09:34.427Z,1.93
2019-05-10T20:12:02.894Z,1.60
2019-05-10T20:14:31.583Z,1.60
2019-05-10T20:17:00.033Z,1.63
2019-05-10T20:19:28.534Z,1.50
2019-05-10T20:21:57.010Z,1.40
2019-05-10T20:24:25.413Z,1.50
2019-05-10T20:26:53.958Z,1.30
2019-05-10T20:29:22.371Z,1.60
2019-05-10T20:31:52.702Z,1.80
2019-05-10T20:34:24.168Z,2.03
2019-05-10T20:36:51.252Z,1.93
2019-05-10T20:39:19.703Z,2.27
2019-05-10T20:41:48.124Z,1.70
2019-05-10T20:44:17.988Z,1.80
2019-05-10T20:46:46.715Z,1.67
2019-05-10T20:49:15.128Z,1.80
2019-05-10T20:51:43.570Z,2.07
2019-05-10T20:54:12.044Z,1.80
2019-05-10T20:56:40.459Z,2.00
2019-05-10T20:59:08.901Z,1.60
2019-05-10T21:01:37.313Z,1.50
2019-05-10T21:04:05.729Z,1.80
2019-05-10T21:06:34.167Z,1.90
2019-05-10T21:09:05.091Z,2.10
2019-05-10T21:11:33.559Z,1.87
2019-05-10T21:14:01.984Z,1.90
2019-05-10T21:16:30.456Z,2.13
2019-05-10T21:18:58.883Z,1.50
2019-05-10T21:21:27.390Z,1.60
2019-05-10T21:23:55.818Z,1.70
2019-05-10T21:26:24.357Z,1.80
2019-05-10T21:28:52.762Z,1.73
2019-05-10T21:31:23.859Z,1.67
2019-05-10T21:34:07.510Z,1.90
2019-05-10T21:36:24.721Z,1.77
2019-05-10T21:38:52.586Z,1.97
2019-05-10T21:41:21.007Z,2.07
2019-05-10T21:43:49.432Z,1.93
2019-05-10T21:46:17.858Z,1.80
2019-05-10T21:48:46.296Z,2.00
2019-05-10T21:51:14.704Z,2.27
2019-05-10T21:53:43.150Z,2.50
2019-05-10T21:56:11.567Z,1.90
2019-05-10T21:58:40.011Z,1.70
2019-05-10T22:01:08.524Z,2.00
2019-05-10T22:03:37.089Z,1.80
2019-05-10T22:06:06.238Z,2.30
2019-05-10T22:08:48.386Z,2.13
2019-05-10T22:11:05.181Z,1.80
2019-05-10T22:13:33.618Z,2.10
2019-05-10T22:16:02.082Z,1.60
2019-05-10T22:18:30.545Z,1.60
2019-05-10T22:20:58.954Z,1.47
2019-05-10T22:23:27.389Z,1.57
2019-05-10T22:25:55.788Z,1.50
2019-05-10T22:28:24.230Z,1.40
2019-05-10T22:30:52.671Z,1.50
2019-05-10T22:33:21.091Z,1.27
2019-05-10T22:35:49.538Z,1.43
2019-05-10T22:38:17.951Z,1.70
2019-05-10T22:40:46.403Z,2.10
2019-05-10T22:43:14.815Z,1.83
2019-05-10T22:45:43.277Z,1.83
2019-05-10T22:48:11.703Z,1.67
2019-05-10T22:50:40.186Z,1.80
2019-05-10T22:53:08.625Z,1.60
2019-05-10T22:55:37.026Z,1.70
2019-05-10T22:58:05.521Z,1.70
2019-05-10T23:00:34.026Z,1.90
2019-05-10T23:03:02.466Z,2.00
2019-05-10T23:05:30.891Z,2.20
2019-05-10T23:07:59.316Z,1.70
2019-05-10T23:10:27.757Z,1.70
2019-05-10T23:12:56.178Z,2.20
2019-05-10T23:15:24.614Z,2.20
2019-05-10T23:17:53.047Z,2.60
2019-05-10T23:20:21.475Z,2.10
2019-05-10T23:22:49.902Z,2.37
2019-05-10T23:25:18.370Z,2.07
2019-05-10T23:27:46.846Z,1.93
2019-05-10T23:30:15.343Z,1.90
2019-05-10T23:32:43.774Z,1.90
2019-05-10T23:35:12.248Z,2.13
2019-05-10T23:37:40.673Z,2.50
2019-05-10T23:40:09.360Z,1.70
2019-05-10T23:42:37.824Z,1.80
2019-05-10T23:45:07.202Z,2.13
2019-05-10T23:47:35.633Z,1.77
2019-05-10T23:50:04.810Z,2.00
2019-05-10T23:52:33.245Z,2.13
2019-05-10T23:55:01.656Z,2.10
2019-05-10T23:57:30.082Z,1.90
2019-05-10T23:59:58.522Z,2.03
